Terminal Aerodrome Forecast
Issued by NWS Mt. Holly, NJ

Home | Current Version | Previous Version | Text Only | Print | Product List | Glossary On
Versions: 1 2 3 4 5 6 7 8 9 10 11 12 13
000
FTUS41 KPHI 302300 RRA
TAFRDG
TAF
KRDG 302341Z 3100/3124 16006KT P6SM BKN035
     FM310600 18003KT P6SM BKN015 BKN030
     FM310900 VRB03KT 4SM BR BKN009 OVC015
     FM311400 22005KT P6SM BKN020 BKN100
     FM311600 22006G16KT P6SM VCSH BKN035 BKN100
     FM312200 23007KT 6SM SHRA SCT025 BKN035=

USA.gov is the U.S. government's official web portal to all federal, state and local government web resources and services.